createdAt,value
2019-03-21T00:02:15.770Z,16.10
2019-03-21T00:04:46.060Z,16.82
2019-03-21T00:07:15.140Z,15.68
2019-03-21T00:10:04.064Z,16.07
2019-03-21T00:12:33.217Z,16.23
2019-03-21T00:15:05.342Z,14.53
2019-03-21T00:17:40.543Z,14.80
2019-03-21T00:20:17.432Z,15.53
2019-03-21T00:22:46.569Z,15.93
2019-03-21T00:25:19.257Z,15.38
2019-03-21T00:27:48.300Z,15.55
2019-03-21T00:30:22.796Z,15.43
2019-03-21T00:32:52.973Z,15.32
2019-03-21T00:35:22.064Z,15.32
2019-03-21T00:37:51.105Z,14.98
2019-03-21T00:40:31.703Z,15.60
2019-03-21T00:43:03.261Z,15.78
2019-03-21T00:45:32.390Z,15.50
2019-03-21T00:48:02.439Z,15.48
2019-03-21T00:50:31.933Z,14.90
2019-03-21T00:53:00.993Z,14.70
2019-03-21T00:55:39.212Z,15.10
2019-03-21T00:58:08.571Z,15.38
2019-03-21T01:00:41.168Z,15.00
2019-03-21T01:03:11.473Z,14.83
2019-03-21T01:05:40.517Z,15.08
2019-03-21T01:08:09.673Z,15.18
2019-03-21T01:10:38.726Z,14.47
2019-03-21T01:13:07.796Z,15.32
2019-03-21T01:15:36.847Z,15.60
2019-03-21T01:18:05.943Z,15.15
2019-03-21T01:20:35.014Z,15.08
2019-03-21T01:23:04.073Z,15.40
2019-03-21T01:25:39.279Z,14.40
2019-03-21T01:28:08.335Z,14.85
2019-03-21T01:30:37.398Z,14.85
2019-03-21T01:33:06.450Z,15.93
2019-03-21T01:35:35.833Z,14.75
2019-03-21T01:38:04.888Z,14.63
2019-03-21T01:40:43.163Z,15.15
2019-03-21T01:43:12.208Z,14.65
2019-03-21T01:45:41.296Z,14.65
2019-03-21T01:48:10.343Z,14.33
2019-03-21T01:50:41.629Z,14.45
2019-03-21T01:53:10.669Z,15.10
2019-03-21T01:55:39.726Z,15.08
2019-03-21T01:58:08.782Z,14.60
2019-03-21T02:00:53.529Z,14.30
2019-03-21T02:03:22.595Z,14.35
2019-03-21T02:05:51.644Z,14.38
2019-03-21T02:08:20.711Z,14.85
2019-03-21T02:10:49.761Z,14.70
2019-03-21T02:13:18.800Z,14.40
2019-03-21T02:15:47.859Z,14.63
2019-03-21T02:18:16.920Z,14.25
2019-03-21T02:20:45.966Z,14.80
2019-03-21T02:23:15.037Z,15.55
2019-03-21T02:25:45.812Z,14.23
2019-03-21T02:28:14.856Z,14.28
2019-03-21T02:30:49.106Z,15.18
2019-03-21T02:33:30.083Z,14.58
2019-03-21T02:35:59.321Z,14.33
2019-03-21T02:38:28.376Z,15.00
2019-03-21T02:41:06.842Z,15.35
2019-03-21T02:43:36.336Z,14.68
2019-03-21T02:46:05.392Z,14.87
2019-03-21T02:48:34.514Z,14.50
2019-03-21T02:51:03.917Z,14.75
2019-03-21T02:53:33.013Z,15.35
2019-03-21T02:56:02.571Z,15.20
2019-03-21T02:58:31.635Z,13.65
2019-03-21T03:01:00.763Z,15.65
2019-03-21T03:03:29.878Z,14.85
2019-03-21T03:05:58.940Z,14.13
2019-03-21T03:08:27.990Z,14.90
2019-03-21T03:11:05.485Z,14.05
2019-03-21T03:13:34.606Z,14.43
2019-03-21T03:16:03.901Z,14.05
2019-03-21T03:18:32.949Z,14.60
2019-03-21T03:21:02.016Z,15.70
2019-03-21T03:23:31.141Z,14.40
2019-03-21T03:26:00.241Z,15.32
2019-03-21T03:28:32.054Z,14.73
2019-03-21T03:31:01.116Z,14.23
2019-03-21T03:33:30.192Z,14.25
2019-03-21T03:35:59.313Z,14.50
2019-03-21T03:38:28.379Z,14.45
2019-03-21T03:41:00.273Z,14.65
2019-03-21T03:43:28.737Z,14.50
2019-03-21T03:45:57.851Z,13.55
2019-03-21T03:48:27.982Z,14.40
2019-03-21T03:50:57.072Z,15.40
2019-03-21T03:53:25.586Z,14.93
2019-03-21T03:55:54.062Z,14.37
2019-03-21T03:58:24.845Z,13.90
2019-03-21T04:00:53.919Z,13.98
2019-03-21T04:03:22.513Z,14.13
2019-03-21T04:05:51.568Z,13.20
2019-03-21T04:08:20.618Z,13.58
2019-03-21T04:10:54.157Z,14.10
2019-03-21T04:13:23.196Z,13.28
2019-03-21T04:15:53.799Z,13.72
2019-03-21T04:18:24.535Z,13.68
2019-03-21T04:21:05.687Z,14.20
2019-03-21T04:23:34.155Z,14.73
2019-03-21T04:26:14.317Z,13.73
2019-03-21T04:28:43.666Z,14.20
2019-03-21T04:31:12.125Z,14.17
2019-03-21T04:33:41.553Z,13.83
2019-03-21T04:36:10.027Z,13.97
2019-03-21T04:38:38.505Z,13.87
2019-03-21T04:41:07.045Z,13.60
2019-03-21T04:43:35.520Z,13.13
2019-03-21T04:46:04.111Z,14.27
2019-03-21T04:48:33.205Z,13.18
2019-03-21T04:51:01.660Z,13.47
2019-03-21T04:53:30.149Z,13.60
2019-03-21T04:55:58.617Z,14.13
2019-03-21T04:58:27.115Z,13.47
2019-03-21T05:00:59.167Z,13.97
2019-03-21T05:03:32.568Z,13.10
2019-03-21T05:06:01.100Z,13.47
2019-03-21T05:08:29.584Z,13.20
2019-03-21T05:10:58.051Z,13.07
2019-03-21T05:13:26.555Z,13.17
2019-03-21T05:15:55.311Z,15.77
2019-03-21T05:18:43.727Z,13.00
2019-03-21T05:21:15.611Z,12.30
2019-03-21T05:23:44.089Z,12.20
2019-03-21T05:26:13.125Z,12.43
2019-03-21T05:28:41.581Z,11.87
2019-03-21T05:31:25.619Z,12.47
2019-03-21T05:33:54.085Z,12.00
2019-03-21T05:36:23.165Z,12.65
2019-03-21T05:38:51.630Z,12.40
2019-03-21T05:41:20.110Z,11.97
2019-03-21T05:43:51.696Z,11.57
2019-03-21T05:46:26.626Z,12.63
2019-03-21T05:48:50.816Z,12.40
2019-03-21T05:51:19.858Z,11.45
2019-03-21T05:53:48.325Z,11.97
2019-03-21T05:56:16.804Z,12.93
2019-03-21T05:58:45.304Z,12.17
2019-03-21T06:01:14.214Z,12.57
2019-03-21T06:03:53.833Z,13.05
2019-03-21T06:06:26.014Z,10.93
2019-03-21T06:08:55.072Z,11.12
2019-03-21T06:11:23.825Z,11.30
2019-03-21T06:13:52.928Z,11.40
2019-03-21T06:16:21.400Z,10.25
2019-03-21T06:19:08.399Z,10.30
2019-03-21T06:21:43.218Z,9.70
2019-03-21T06:24:23.759Z,10.73
2019-03-21T06:26:55.953Z,10.25
2019-03-21T06:29:24.435Z,11.40
2019-03-21T06:31:53.479Z,11.50
2019-03-21T06:34:22.526Z,19.80
2019-03-21T06:36:51.591Z,10.82
2019-03-21T06:39:20.709Z,11.20
2019-03-21T06:41:49.757Z,10.85
2019-03-21T06:44:18.825Z,12.88
2019-03-21T06:46:49.705Z,10.63
2019-03-21T06:49:18.745Z,10.88
2019-03-21T06:51:47.833Z,11.33
2019-03-21T06:54:19.579Z,11.40
2019-03-21T06:56:48.631Z,11.28
2019-03-21T06:59:17.713Z,10.68
2019-03-21T07:01:46.829Z,11.33
2019-03-21T07:04:15.876Z,11.25
2019-03-21T07:06:44.953Z,11.55
2019-03-21T07:09:13.994Z,11.33
2019-03-21T07:11:43.066Z,11.53
2019-03-21T07:14:12.131Z,11.45
2019-03-21T07:16:41.200Z,11.08
2019-03-21T07:19:10.267Z,11.50
2019-03-21T07:21:39.325Z,11.95
2019-03-21T07:24:08.373Z,12.30
2019-03-21T07:26:37.449Z,11.90
2019-03-21T07:29:06.504Z,11.48
2019-03-21T07:31:35.657Z,13.30
2019-03-21T07:34:05.048Z,11.80
2019-03-21T07:36:34.121Z,12.07
2019-03-21T07:39:04.001Z,12.73
2019-03-21T07:41:33.087Z,12.70
2019-03-21T07:44:02.190Z,12.58
2019-03-21T07:46:32.124Z,12.63
2019-03-21T07:49:01.302Z,12.55
2019-03-21T07:51:30.368Z,13.72
2019-03-21T07:53:59.437Z,12.15
2019-03-21T07:56:28.553Z,13.60
2019-03-21T07:58:57.999Z,13.55
2019-03-21T08:01:27.240Z,12.65
2019-03-21T08:03:56.365Z,12.78
2019-03-21T08:06:25.437Z,12.78
2019-03-21T08:08:54.474Z,12.63
2019-03-21T08:11:23.564Z,12.60
2019-03-21T08:13:52.630Z,12.70
2019-03-21T08:16:21.756Z,13.30
2019-03-21T08:18:50.811Z,13.28
2019-03-21T08:21:19.910Z,12.85
2019-03-21T08:23:48.951Z,11.50
2019-03-21T08:26:18.001Z,12.13
2019-03-21T08:28:47.059Z,12.80
2019-03-21T08:31:16.258Z,12.37
2019-03-21T08:33:45.673Z,13.20
2019-03-21T08:36:14.724Z,13.10
2019-03-21T08:38:44.065Z,13.15
2019-03-21T08:41:13.171Z,12.60
2019-03-21T08:43:42.249Z,13.13
2019-03-21T08:46:11.316Z,12.98
2019-03-21T08:48:40.384Z,12.88
2019-03-21T08:51:09.413Z,12.45
2019-03-21T08:53:38.485Z,12.07
2019-03-21T08:56:07.537Z,13.03
2019-03-21T08:58:36.778Z,13.18
2019-03-21T09:01:06.261Z,12.37
2019-03-21T09:03:35.466Z,12.07
2019-03-21T09:06:05.005Z,12.05
2019-03-21T09:08:34.094Z,12.07
2019-03-21T09:11:03.152Z,11.40
2019-03-21T09:13:32.210Z,9.95
2019-03-21T09:16:01.266Z,10.53
2019-03-21T09:18:30.333Z,10.23
2019-03-21T09:20:59.513Z,10.98
2019-03-21T09:23:28.584Z,10.60
2019-03-21T09:25:57.662Z,10.95
2019-03-21T09:28:26.738Z,10.80
2019-03-21T09:30:56.654Z,11.22
2019-03-21T09:33:25.888Z,10.58
2019-03-21T09:35:55.030Z,11.15
2019-03-21T09:38:24.126Z,13.43
2019-03-21T09:40:53.219Z,11.15
2019-03-21T09:43:22.296Z,11.43
2019-03-21T09:45:51.352Z,12.15
2019-03-21T09:48:20.409Z,11.70
2019-03-21T09:50:49.487Z,10.85
2019-03-21T09:53:18.530Z,11.85
2019-03-21T09:55:47.607Z,9.23
2019-03-21T09:58:16.665Z,9.20
2019-03-21T10:00:45.726Z,11.75
2019-03-21T10:03:14.781Z,10.98
2019-03-21T10:05:43.862Z,10.00
2019-03-21T10:08:12.935Z,10.08
2019-03-21T10:10:42.010Z,11.22
2019-03-21T10:13:11.072Z,11.33
2019-03-21T10:15:40.142Z,11.90
2019-03-21T10:18:09.206Z,11.30
2019-03-21T10:20:38.273Z,12.33
2019-03-21T10:23:07.332Z,11.28
2019-03-21T10:25:36.436Z,11.73
2019-03-21T10:28:05.497Z,11.73
2019-03-21T10:30:36.295Z,12.90
2019-03-21T10:33:07.180Z,11.55
2019-03-21T10:35:36.529Z,11.25
2019-03-21T10:38:06.133Z,10.78
2019-03-21T10:40:35.722Z,10.30
2019-03-21T10:43:05.720Z,10.25
2019-03-21T10:45:35.056Z,10.28
2019-03-21T10:48:04.497Z,9.75
2019-03-21T10:50:35.379Z,10.70
2019-03-21T10:53:05.166Z,9.78
2019-03-21T10:55:34.237Z,9.78
2019-03-21T10:58:03.754Z,9.88
2019-03-21T11:00:32.859Z,10.45
2019-03-21T11:03:01.916Z,10.75
2019-03-21T11:05:31.012Z,10.55
2019-03-21T11:08:00.059Z,10.80
2019-03-21T11:10:29.149Z,11.40
2019-03-21T11:12:58.226Z,11.28
2019-03-21T11:15:27.500Z,10.72
2019-03-21T11:17:56.944Z,12.07
2019-03-21T11:20:28.334Z,11.97
2019-03-21T11:22:57.386Z,12.05
2019-03-21T11:25:26.797Z,11.55
2019-03-21T11:27:55.848Z,11.78
2019-03-21T11:30:36.498Z,11.80
2019-03-21T11:33:05.815Z,11.97
2019-03-21T11:35:36.048Z,11.28
2019-03-21T11:38:06.176Z,12.15
2019-03-21T11:40:35.327Z,12.15
2019-03-21T11:43:06.396Z,12.00
2019-03-21T11:45:35.448Z,12.75
2019-03-21T11:48:05.176Z,11.85
2019-03-21T11:50:34.373Z,11.63
2019-03-21T11:53:03.691Z,13.03
2019-03-21T11:55:32.761Z,12.93
2019-03-21T11:58:01.828Z,12.98
2019-03-21T12:00:42.697Z,12.82
2019-03-21T12:03:04.109Z,12.33
2019-03-21T12:05:32.540Z,13.30
2019-03-21T12:08:01.594Z,13.88
2019-03-21T12:10:30.728Z,13.53
2019-03-21T12:12:59.807Z,13.08
2019-03-21T12:15:28.859Z,13.35
2019-03-21T12:17:59.095Z,13.15
2019-03-21T12:20:32.593Z,13.50
2019-03-21T12:23:01.772Z,13.98
2019-03-21T12:25:30.838Z,13.62
2019-03-21T12:28:01.535Z,14.23
2019-03-21T12:30:39.000Z,14.30
2019-03-21T12:33:08.490Z,14.70
2019-03-21T12:35:37.612Z,13.13
2019-03-21T12:38:06.917Z,14.15
2019-03-21T12:40:36.165Z,14.40
2019-03-21T12:43:05.472Z,14.47
2019-03-21T12:45:34.501Z,13.70
2019-03-21T12:48:03.748Z,14.10
2019-03-21T12:50:32.805Z,13.58
2019-03-21T12:53:01.874Z,13.90
2019-03-21T12:55:30.921Z,14.20
2019-03-21T12:58:00.055Z,13.75
2019-03-21T13:00:34.319Z,14.35
2019-03-21T13:03:03.476Z,17.45
2019-03-21T13:05:32.673Z,15.13
2019-03-21T13:08:01.807Z,14.05
2019-03-21T13:10:30.868Z,13.85
2019-03-21T13:12:59.915Z,14.18
2019-03-21T13:15:30.146Z,13.68
2019-03-21T13:18:00.592Z,13.05
2019-03-21T13:20:30.016Z,12.50
2019-03-21T13:22:59.078Z,12.37
2019-03-21T13:25:28.229Z,13.08
2019-03-21T13:27:57.348Z,13.20
2019-03-21T13:30:26.522Z,13.85
2019-03-21T13:32:55.584Z,14.45
2019-03-21T13:35:32.575Z,13.65
2019-03-21T13:37:55.444Z,13.50
2019-03-21T13:40:24.592Z,12.90
2019-03-21T13:42:53.655Z,12.58
2019-03-21T13:45:22.732Z,13.40
2019-03-21T13:47:51.775Z,12.28
2019-03-21T13:50:20.859Z,12.73
2019-03-21T13:52:49.915Z,21.17
2019-03-21T13:55:18.975Z,13.62
2019-03-21T13:57:48.040Z,15.03
2019-03-21T14:00:19.558Z,13.25
2019-03-21T14:02:48.761Z,14.55
2019-03-21T14:05:20.415Z,14.45
2019-03-21T14:07:49.534Z,14.05
2019-03-21T14:10:19.030Z,14.03
2019-03-21T14:12:48.082Z,13.93
2019-03-21T14:15:18.200Z,14.50
2019-03-21T14:17:47.252Z,13.35
2019-03-21T14:20:16.580Z,14.85
2019-03-21T14:22:45.649Z,13.75
2019-03-21T14:25:15.078Z,14.53
2019-03-21T14:27:44.136Z,14.47
2019-03-21T14:30:17.735Z,14.10
2019-03-21T14:32:46.813Z,15.08
2019-03-21T14:35:16.322Z,14.28
2019-03-21T14:37:45.639Z,13.75
2019-03-21T14:40:15.955Z,14.53
2019-03-21T14:42:45.108Z,13.78
2019-03-21T14:45:17.723Z,13.85
2019-03-21T14:47:46.787Z,12.58
2019-03-21T14:50:16.827Z,13.25
2019-03-21T14:52:45.886Z,13.98
2019-03-21T14:55:16.145Z,13.40
2019-03-21T14:57:45.293Z,13.32
2019-03-21T15:00:16.963Z,13.05
2019-03-21T15:02:46.087Z,13.40
2019-03-21T15:05:15.693Z,14.70
2019-03-21T15:07:44.458Z,13.83
2019-03-21T15:10:17.719Z,14.17
2019-03-21T15:12:46.486Z,15.37
2019-03-21T15:15:15.995Z,14.17
2019-03-21T15:17:45.023Z,15.57
2019-03-21T15:20:17.517Z,14.10
2019-03-21T15:22:46.554Z,14.10
2019-03-21T15:25:15.837Z,14.97
2019-03-21T15:27:44.782Z,13.80
2019-03-21T15:30:20.040Z,14.50
2019-03-21T15:32:49.049Z,15.37
2019-03-21T15:35:19.224Z,15.83
2019-03-21T15:37:48.068Z,15.63
2019-03-21T15:40:17.350Z,14.87
2019-03-21T15:42:46.102Z,14.73
2019-03-21T15:45:23.203Z,15.60
2019-03-21T15:47:49.242Z,15.17
2019-03-21T15:50:32.515Z,15.50
2019-03-21T15:53:01.646Z,16.23
2019-03-21T15:55:30.482Z,15.87
2019-03-21T15:57:59.249Z,15.93
2019-03-21T16:00:35.920Z,14.20
2019-03-21T16:03:06.116Z,14.97
2019-03-21T16:05:35.699Z,15.60
2019-03-21T16:08:05.722Z,15.90
2019-03-21T16:10:34.541Z,15.67
2019-03-21T16:13:03.480Z,15.17
2019-03-21T16:15:32.539Z,15.63
2019-03-21T16:18:01.663Z,15.63
2019-03-21T16:20:30.806Z,15.13
2019-03-21T16:22:59.866Z,15.10
2019-03-21T16:25:28.911Z,15.25
2019-03-21T16:27:57.983Z,16.05
2019-03-21T16:30:27.104Z,15.28
2019-03-21T16:32:56.179Z,14.75
2019-03-21T16:35:25.255Z,15.78
2019-03-21T16:37:54.379Z,15.48
2019-03-21T16:40:23.437Z,16.23
2019-03-21T16:42:52.505Z,16.10
2019-03-21T16:45:21.568Z,15.45
2019-03-21T16:47:50.653Z,15.88
2019-03-21T16:50:19.780Z,15.20
2019-03-21T16:52:48.843Z,16.30
2019-03-21T16:55:17.919Z,15.23
2019-03-21T16:57:47.027Z,15.05
2019-03-21T17:00:18.350Z,15.28
2019-03-21T17:02:48.139Z,16.73
2019-03-21T17:05:17.441Z,17.50
2019-03-21T17:07:46.515Z,15.83
2019-03-21T17:10:18.799Z,15.88
2019-03-21T17:12:47.948Z,15.83
2019-03-21T17:15:17.021Z,17.23
2019-03-21T17:17:46.097Z,16.55
2019-03-21T17:20:15.367Z,16.30
2019-03-21T17:22:44.466Z,16.57
2019-03-21T17:25:13.946Z,17.75
2019-03-21T17:27:43.018Z,17.70
2019-03-21T17:30:17.676Z,16.45
2019-03-21T17:32:46.744Z,16.67
2019-03-21T17:35:15.896Z,19.70
2019-03-21T17:37:44.954Z,16.75
2019-03-21T17:40:15.398Z,16.42
2019-03-21T17:42:44.515Z,15.23
2019-03-21T17:45:17.658Z,16.42
2019-03-21T17:47:46.974Z,17.23
2019-03-21T17:50:18.295Z,18.27
2019-03-21T17:52:49.104Z,18.50
2019-03-21T17:55:18.238Z,19.02
2019-03-21T17:57:47.298Z,16.45
2019-03-21T18:00:20.815Z,15.98
2019-03-21T18:02:49.922Z,16.25
2019-03-21T18:05:19.177Z,18.02
2019-03-21T18:07:48.248Z,18.77
2019-03-21T18:10:34.165Z,18.52
2019-03-21T18:13:04.062Z,18.73
2019-03-21T18:15:33.216Z,18.10
2019-03-21T18:18:02.408Z,19.40
2019-03-21T18:20:31.554Z,20.70
2019-03-21T18:23:00.608Z,20.35
2019-03-21T18:25:29.677Z,18.65
2019-03-21T18:27:58.729Z,20.05
2019-03-21T18:30:27.822Z,19.70
2019-03-21T18:32:56.860Z,20.55
2019-03-21T18:35:26.019Z,18.07
2019-03-21T18:37:55.074Z,21.05
2019-03-21T18:40:24.142Z,20.88
2019-03-21T18:42:53.206Z,20.25
2019-03-21T18:45:22.331Z,21.75
2019-03-21T18:47:51.393Z,19.17
2019-03-21T18:50:20.543Z,16.85
2019-03-21T18:52:49.603Z,18.30
2019-03-21T18:55:18.731Z,18.77
2019-03-21T18:57:47.821Z,17.50
2019-03-21T19:00:18.957Z,17.77
2019-03-21T19:02:48.094Z,17.12
2019-03-21T19:05:17.166Z,17.25
2019-03-21T19:07:46.230Z,17.23
2019-03-21T19:10:16.533Z,18.02
2019-03-21T19:12:45.730Z,18.82
2019-03-21T19:15:16.414Z,19.82
2019-03-21T19:17:45.558Z,20.50
2019-03-21T19:20:20.672Z,19.17
2019-03-21T19:22:49.817Z,19.30
2019-03-21T19:25:19.767Z,17.80
2019-03-21T19:27:49.139Z,17.20
2019-03-21T19:30:20.411Z,18.42
2019-03-21T19:32:50.008Z,20.15
2019-03-21T19:35:19.400Z,16.93
2019-03-21T19:37:48.490Z,17.23
2019-03-21T19:40:18.806Z,17.82
2019-03-21T19:42:47.938Z,18.07
2019-03-21T19:45:18.233Z,16.85
2019-03-21T19:47:47.640Z,17.95
2019-03-21T19:50:20.481Z,18.52
2019-03-21T19:52:49.567Z,18.52
2019-03-21T19:55:30.230Z,17.73
2019-03-21T19:57:49.646Z,18.07
2019-03-21T20:00:23.386Z,19.07
2019-03-21T20:02:52.483Z,17.75
2019-03-21T20:05:21.624Z,18.12
2019-03-21T20:08:10.022Z,18.12
2019-03-21T20:10:39.502Z,21.00
2019-03-21T20:13:08.570Z,20.45
2019-03-21T20:15:37.625Z,20.45
2019-03-21T20:18:06.770Z,19.23
2019-03-21T20:20:35.833Z,18.75
2019-03-21T20:23:04.910Z,18.42
2019-03-21T20:25:42.784Z,18.30
2019-03-21T20:28:04.765Z,18.27
2019-03-21T20:30:33.824Z,19.12
2019-03-21T20:33:02.900Z,17.85
2019-03-21T20:35:31.957Z,17.87
2019-03-21T20:38:01.035Z,16.52
2019-03-21T20:40:30.101Z,18.05
2019-03-21T20:42:59.261Z,16.95
2019-03-21T20:45:28.323Z,18.92
2019-03-21T20:47:57.420Z,18.02
2019-03-21T20:50:26.532Z,17.92
2019-03-21T20:52:55.609Z,18.05
2019-03-21T20:55:24.687Z,18.50
2019-03-21T20:57:53.776Z,16.77
2019-03-21T21:00:24.050Z,18.05
2019-03-21T21:02:54.378Z,17.80
2019-03-21T21:05:23.615Z,18.42
2019-03-21T21:07:52.849Z,18.05
2019-03-21T21:10:21.927Z,17.98
2019-03-21T21:12:51.077Z,18.23
2019-03-21T21:15:20.135Z,19.10
2019-03-21T21:17:49.473Z,19.10
2019-03-21T21:20:19.357Z,18.02
2019-03-21T21:22:48.428Z,18.17
2019-03-21T21:25:17.485Z,19.20
2019-03-21T21:27:49.760Z,18.48
2019-03-21T21:30:22.177Z,19.27
2019-03-21T21:32:51.214Z,20.55
2019-03-21T21:35:20.300Z,20.15
2019-03-21T21:37:49.354Z,22.15
2019-03-21T21:40:18.767Z,20.32
2019-03-21T21:42:47.917Z,19.30
2019-03-21T21:45:18.583Z,19.40
2019-03-21T21:47:47.702Z,20.60
2019-03-21T21:50:17.961Z,19.92
2019-03-21T21:52:47.008Z,19.40
2019-03-21T21:55:16.141Z,19.37
2019-03-21T21:57:45.207Z,19.98
2019-03-21T22:00:19.936Z,20.57
2019-03-21T22:02:48.976Z,20.43
2019-03-21T22:05:18.381Z,20.57
2019-03-21T22:07:47.488Z,20.62
2019-03-21T22:10:17.208Z,20.82
2019-03-21T22:12:46.332Z,21.17
2019-03-21T22:15:17.092Z,22.17
2019-03-21T22:17:46.172Z,21.37
2019-03-21T22:20:17.036Z,20.43
2019-03-21T22:22:46.234Z,21.87
2019-03-21T22:25:15.368Z,21.30
2019-03-21T22:27:44.573Z,20.25
2019-03-21T22:30:18.811Z,21.15
2019-03-21T22:32:48.303Z,20.55
2019-03-21T22:35:17.427Z,20.17
2019-03-21T22:37:46.476Z,20.20
2019-03-21T22:40:18.551Z,20.32
2019-03-21T22:42:47.721Z,19.98
2019-03-21T22:45:18.319Z,19.62
2019-03-21T22:47:50.180Z,19.62
2019-03-21T22:50:18.398Z,20.70
2019-03-21T22:52:47.469Z,20.10
2019-03-21T22:55:16.563Z,19.85
2019-03-21T22:57:45.647Z,19.87
2019-03-21T23:00:35.119Z,20.02
2019-03-21T23:03:04.309Z,19.75
2019-03-21T23:05:33.431Z,21.15
2019-03-21T23:08:02.504Z,20.15
2019-03-21T23:10:31.555Z,20.23
2019-03-21T23:13:00.609Z,20.80
2019-03-21T23:15:29.654Z,20.82
2019-03-21T23:17:58.794Z,20.00
2019-03-21T23:20:27.867Z,20.75
2019-03-21T23:22:56.934Z,21.25
2019-03-21T23:25:26.047Z,21.07
2019-03-21T23:27:55.099Z,20.48
2019-03-21T23:30:24.148Z,20.82
2019-03-21T23:32:53.211Z,20.52
2019-03-21T23:35:22.257Z,19.35
2019-03-21T23:37:51.318Z,19.30
2019-03-21T23:40:20.378Z,19.77
2019-03-21T23:42:49.444Z,19.07
2019-03-21T23:45:20.001Z,19.87
2019-03-21T23:47:49.347Z,20.72
2019-03-21T23:50:18.469Z,20.72
2019-03-21T23:52:47.606Z,20.17
2019-03-21T23:55:16.638Z,21.00
2019-03-21T23:57:45.714Z,21.23
